sensor_id;sensor_type;location;lat;lon;timestamp;P1;durP1;ratioP1;P2;durP2;ratioP2
51184;SDS011;37248;59.350;18.050;2023-04-28T00:02:25;2.75;;;0.63;;
51184;SDS011;37248;59.350;18.050;2023-04-28T00:04:51;3.60;;;0.60;;
51184;SDS011;37248;59.350;18.050;2023-04-28T00:07:16;3.87;;;0.53;;
51184;SDS011;37248;59.350;18.050;2023-04-28T00:09:41;1.77;;;0.50;;
51184;SDS011;37248;59.350;18.050;2023-04-28T00:12:06;3.60;;;0.70;;
51184;SDS011;37248;59.350;18.050;2023-04-28T00:14:32;1.87;;;0.40;;
51184;SDS011;37248;59.350;18.050;2023-04-28T00:16:57;1.97;;;0.77;;
51184;SDS011;37248;59.350;18.050;2023-04-28T00:19:23;2.00;;;0.60;;
51184;SDS011;37248;59.350;18.050;2023-04-28T00:21:48;1.70;;;0.50;;
51184;SDS011;37248;59.350;18.050;2023-04-28T00:24:13;2.67;;;0.53;;
51184;SDS011;37248;59.350;18.050;2023-04-28T00:26:39;1.00;;;0.50;;
51184;SDS011;37248;59.350;18.050;2023-04-28T00:29:04;1.90;;;0.40;;
51184;SDS011;37248;59.350;18.050;2023-04-28T00:31:29;1.10;;;0.50;;
51184;SDS011;37248;59.350;18.050;2023-04-28T00:33:55;1.60;;;0.43;;
51184;SDS011;37248;59.350;18.050;2023-04-28T00:36:20;1.87;;;0.50;;
51184;SDS011;37248;59.350;18.050;2023-04-28T00:38:45;2.17;;;0.50;;
51184;SDS011;37248;59.350;18.050;2023-04-28T00:41:10;2.97;;;0.70;;
51184;SDS011;37248;59.350;18.050;2023-04-28T00:43:43;2.25;;;0.55;;
51184;SDS011;37248;59.350;18.050;2023-04-28T00:46:09;1.15;;;0.45;;
51184;SDS011;37248;59.350;18.050;2023-04-28T00:48:34;4.47;;;0.50;;
51184;SDS011;37248;59.350;18.050;2023-04-28T00:50:59;0.63;;;0.40;;
51184;SDS011;37248;59.350;18.050;2023-04-28T00:53:26;1.45;;;0.43;;
51184;SDS011;37248;59.350;18.050;2023-04-28T00:55:51;1.23;;;0.40;;
51184;SDS011;37248;59.350;18.050;2023-04-28T00:58:17;3.08;;;0.50;;
51184;SDS011;37248;59.350;18.050;2023-04-28T01:00:42;1.95;;;0.47;;
51184;SDS011;37248;59.350;18.050;2023-04-28T01:03:08;4.17;;;0.57;;
51184;SDS011;37248;59.350;18.050;2023-04-28T01:05:33;3.23;;;0.60;;
51184;SDS011;37248;59.350;18.050;2023-04-28T01:07:58;2.07;;;0.40;;
51184;SDS011;37248;59.350;18.050;2023-04-28T01:10:24;1.20;;;0.50;;
51184;SDS011;37248;59.350;18.050;2023-04-28T01:12:49;2.20;;;0.40;;
51184;SDS011;37248;59.350;18.050;2023-04-28T01:15:15;1.80;;;0.53;;
51184;SDS011;37248;59.350;18.050;2023-04-28T01:17:41;2.80;;;0.60;;
51184;SDS011;37248;59.350;18.050;2023-04-28T01:20:06;2.03;;;0.50;;
51184;SDS011;37248;59.350;18.050;2023-04-28T01:22:32;1.20;;;0.23;;
51184;SDS011;37248;59.350;18.050;2023-04-28T01:24:57;2.60;;;0.40;;
51184;SDS011;37248;59.350;18.050;2023-04-28T01:27:24;2.95;;;0.35;;
51184;SDS011;37248;59.350;18.050;2023-04-28T01:29:49;3.90;;;0.50;;
51184;SDS011;37248;59.350;18.050;2023-04-28T01:32:14;0.90;;;0.40;;
51184;SDS011;37248;59.350;18.050;2023-04-28T01:34:40;1.30;;;0.30;;
51184;SDS011;37248;59.350;18.050;2023-04-28T01:37:05;1.97;;;0.40;;
51184;SDS011;37248;59.350;18.050;2023-04-28T01:39:30;0.50;;;0.30;;
51184;SDS011;37248;59.350;18.050;2023-04-28T01:41:55;0.90;;;0.30;;
51184;SDS011;37248;59.350;18.050;2023-04-28T01:44:21;1.87;;;0.43;;
51184;SDS011;37248;59.350;18.050;2023-04-28T01:46:46;2.33;;;0.40;;
51184;SDS011;37248;59.350;18.050;2023-04-28T01:49:11;1.00;;;0.40;;
51184;SDS011;37248;59.350;18.050;2023-04-28T01:51:36;2.08;;;0.38;;
51184;SDS011;37248;59.350;18.050;2023-04-28T01:54:02;0.87;;;0.30;;
51184;SDS011;37248;59.350;18.050;2023-04-28T01:56:27;3.90;;;0.30;;
51184;SDS011;37248;59.350;18.050;2023-04-28T01:58:52;1.20;;;0.37;;
51184;SDS011;37248;59.350;18.050;2023-04-28T02:01:18;0.90;;;0.30;;
51184;SDS011;37248;59.350;18.050;2023-04-28T02:03:43;1.70;;;0.40;;
51184;SDS011;37248;59.350;18.050;2023-04-28T02:06:08;1.50;;;0.60;;
51184;SDS011;37248;59.350;18.050;2023-04-28T02:08:34;2.50;;;0.40;;
51184;SDS011;37248;59.350;18.050;2023-04-28T02:10:59;3.40;;;0.30;;
51184;SDS011;37248;59.350;18.050;2023-04-28T02:13:25;2.88;;;0.40;;
51184;SDS011;37248;59.350;18.050;2023-04-28T02:15:51;2.23;;;0.40;;
51184;SDS011;37248;59.350;18.050;2023-04-28T02:18:16;1.83;;;0.40;;
51184;SDS011;37248;59.350;18.050;2023-04-28T02:20:41;3.83;;;0.37;;
51184;SDS011;37248;59.350;18.050;2023-04-28T02:23:07;2.53;;;0.40;;
51184;SDS011;37248;59.350;18.050;2023-04-28T02:25:32;3.50;;;0.50;;
51184;SDS011;37248;59.350;18.050;2023-04-28T02:27:57;3.20;;;0.40;;
51184;SDS011;37248;59.350;18.050;2023-04-28T02:30:23;2.85;;;0.40;;
51184;SDS011;37248;59.350;18.050;2023-04-28T02:32:48;1.00;;;0.40;;
51184;SDS011;37248;59.350;18.050;2023-04-28T02:35:13;3.93;;;0.50;;
51184;SDS011;37248;59.350;18.050;2023-04-28T02:37:39;1.27;;;0.50;;
51184;SDS011;37248;59.350;18.050;2023-04-28T02:40:04;4.80;;;0.53;;
51184;SDS011;37248;59.350;18.050;2023-04-28T02:42:30;4.53;;;0.40;;
51184;SDS011;37248;59.350;18.050;2023-04-28T02:44:55;2.47;;;0.40;;
51184;SDS011;37248;59.350;18.050;2023-04-28T02:47:20;1.40;;;0.35;;
51184;SDS011;37248;59.350;18.050;2023-04-28T02:49:46;2.40;;;0.40;;
51184;SDS011;37248;59.350;18.050;2023-04-28T02:52:11;2.10;;;0.40;;
51184;SDS011;37248;59.350;18.050;2023-04-28T02:54:36;5.37;;;0.57;;
51184;SDS011;37248;59.350;18.050;2023-04-28T02:57:02;4.03;;;0.43;;
51184;SDS011;37248;59.350;18.050;2023-04-28T02:59:30;1.43;;;0.30;;
51184;SDS011;37248;59.350;18.050;2023-04-28T03:01:55;1.37;;;0.37;;
51184;SDS011;37248;59.350;18.050;2023-04-28T03:04:21;2.40;;;0.40;;
51184;SDS011;37248;59.350;18.050;2023-04-28T03:06:46;4.70;;;0.57;;
51184;SDS011;37248;59.350;18.050;2023-04-28T03:09:11;2.23;;;0.40;;
51184;SDS011;37248;59.350;18.050;2023-04-28T03:11:37;6.05;;;0.50;;
51184;SDS011;37248;59.350;18.050;2023-04-28T03:14:03;3.87;;;0.50;;
51184;SDS011;37248;59.350;18.050;2023-04-28T03:16:28;6.13;;;0.60;;
51184;SDS011;37248;59.350;18.050;2023-04-28T03:18:53;7.30;;;0.50;;
51184;SDS011;37248;59.350;18.050;2023-04-28T03:21:19;4.13;;;0.43;;
51184;SDS011;37248;59.350;18.050;2023-04-28T03:23:44;2.28;;;0.45;;
51184;SDS011;37248;59.350;18.050;2023-04-28T03:26:09;6.93;;;0.47;;
51184;SDS011;37248;59.350;18.050;2023-04-28T03:28:35;4.30;;;0.57;;
51184;SDS011;37248;59.350;18.050;2023-04-28T03:31:00;9.13;;;0.60;;
51184;SDS011;37248;59.350;18.050;2023-04-28T03:33:26;7.15;;;0.65;;
51184;SDS011;37248;59.350;18.050;2023-04-28T03:35:52;5.97;;;0.77;;
51184;SDS011;37248;59.350;18.050;2023-04-28T03:38:18;8.45;;;0.80;;
51184;SDS011;37248;59.350;18.050;2023-04-28T03:40:43;7.70;;;1.03;;
51184;SDS011;37248;59.350;18.050;2023-04-28T03:43:09;4.07;;;0.77;;
51184;SDS011;37248;59.350;18.050;2023-04-28T03:45:34;8.13;;;1.10;;
51184;SDS011;37248;59.350;18.050;2023-04-28T03:47:59;12.57;;;1.27;;
51184;SDS011;37248;59.350;18.050;2023-04-28T03:50:24;13.55;;;0.75;;
51184;SDS011;37248;59.350;18.050;2023-04-28T03:52:53;4.33;;;0.70;;
51184;SDS011;37248;59.350;18.050;2023-04-28T03:55:18;10.05;;;1.00;;
51184;SDS011;37248;59.350;18.050;2023-04-28T03:57:43;9.03;;;0.57;;
51184;SDS011;37248;59.350;18.050;2023-04-28T04:00:09;7.25;;;0.80;;
51184;SDS011;37248;59.350;18.050;2023-04-28T04:02:34;3.78;;;0.73;;
51184;SDS011;37248;59.350;18.050;2023-04-28T04:05:00;5.65;;;0.77;;
51184;SDS011;37248;59.350;18.050;2023-04-28T04:07:26;6.53;;;1.07;;
51184;SDS011;37248;59.350;18.050;2023-04-28T04:09:51;5.17;;;0.70;;
51184;SDS011;37248;59.350;18.050;2023-04-28T04:12:16;4.13;;;0.70;;
51184;SDS011;37248;59.350;18.050;2023-04-28T04:14:42;9.52;;;1.00;;
51184;SDS011;37248;59.350;18.050;2023-04-28T04:17:08;6.20;;;0.67;;
51184;SDS011;37248;59.350;18.050;2023-04-28T04:19:33;4.97;;;0.50;;
51184;SDS011;37248;59.350;18.050;2023-04-28T04:21:58;3.73;;;0.60;;
51184;SDS011;37248;59.350;18.050;2023-04-28T04:24:23;7.77;;;0.60;;
51184;SDS011;37248;59.350;18.050;2023-04-28T04:26:49;6.40;;;0.77;;
51184;SDS011;37248;59.350;18.050;2023-04-28T04:29:14;7.63;;;0.77;;
51184;SDS011;37248;59.350;18.050;2023-04-28T04:31:42;5.15;;;0.73;;
51184;SDS011;37248;59.350;18.050;2023-04-28T04:34:09;3.92;;;0.52;;
51184;SDS011;37248;59.350;18.050;2023-04-28T04:36:35;6.72;;;0.70;;
51184;SDS011;37248;59.350;18.050;2023-04-28T04:39:00;4.70;;;0.60;;
51184;SDS011;37248;59.350;18.050;2023-04-28T04:41:25;4.13;;;0.80;;
51184;SDS011;37248;59.350;18.050;2023-04-28T04:43:51;4.43;;;0.57;;
51184;SDS011;37248;59.350;18.050;2023-04-28T04:46:16;3.00;;;0.70;;
51184;SDS011;37248;59.350;18.050;2023-04-28T04:48:44;3.47;;;0.40;;
51184;SDS011;37248;59.350;18.050;2023-04-28T04:51:12;3.87;;;0.50;;
51184;SDS011;37248;59.350;18.050;2023-04-28T04:53:37;3.33;;;0.55;;
51184;SDS011;37248;59.350;18.050;2023-04-28T04:56:02;10.33;;;0.93;;
51184;SDS011;37248;59.350;18.050;2023-04-28T04:58:28;5.90;;;0.80;;
51184;SDS011;37248;59.350;18.050;2023-04-28T05:00:53;5.63;;;0.73;;
51184;SDS011;37248;59.350;18.050;2023-04-28T05:03:19;6.57;;;0.67;;
51184;SDS011;37248;59.350;18.050;2023-04-28T05:05:44;2.87;;;0.63;;
51184;SDS011;37248;59.350;18.050;2023-04-28T05:08:10;4.30;;;0.53;;
51184;SDS011;37248;59.350;18.050;2023-04-28T05:10:35;6.43;;;0.60;;
51184;SDS011;37248;59.350;18.050;2023-04-28T05:13:00;6.87;;;0.80;;
51184;SDS011;37248;59.350;18.050;2023-04-28T05:15:26;13.40;;;1.00;;
51184;SDS011;37248;59.350;18.050;2023-04-28T05:17:51;9.10;;;1.07;;
51184;SDS011;37248;59.350;18.050;2023-04-28T05:20:16;14.90;;;0.97;;
51184;SDS011;37248;59.350;18.050;2023-04-28T05:22:42;13.07;;;1.10;;
51184;SDS011;37248;59.350;18.050;2023-04-28T05:25:07;21.70;;;1.30;;
51184;SDS011;37248;59.350;18.050;2023-04-28T05:27:33;14.85;;;1.13;;
51184;SDS011;37248;59.350;18.050;2023-04-28T05:29:58;20.93;;;1.00;;
51184;SDS011;37248;59.350;18.050;2023-04-28T05:32:24;10.83;;;0.70;;
51184;SDS011;37248;59.350;18.050;2023-04-28T05:34:49;10.43;;;0.60;;
51184;SDS011;37248;59.350;18.050;2023-04-28T05:37:14;13.63;;;1.17;;
51184;SDS011;37248;59.350;18.050;2023-04-28T05:39:39;14.73;;;1.33;;
51184;SDS011;37248;59.350;18.050;2023-04-28T05:42:05;9.70;;;0.90;;
51184;SDS011;37248;59.350;18.050;2023-04-28T05:44:30;12.27;;;1.02;;
51184;SDS011;37248;59.350;18.050;2023-04-28T05:46:55;10.93;;;1.07;;
51184;SDS011;37248;59.350;18.050;2023-04-28T05:49:21;11.47;;;0.90;;
51184;SDS011;37248;59.350;18.050;2023-04-28T05:51:46;12.30;;;1.03;;
51184;SDS011;37248;59.350;18.050;2023-04-28T05:54:11;8.50;;;0.77;;
51184;SDS011;37248;59.350;18.050;2023-04-28T05:56:36;9.90;;;1.00;;
51184;SDS011;37248;59.350;18.050;2023-04-28T05:59:02;3.53;;;0.50;;
51184;SDS011;37248;59.350;18.050;2023-04-28T06:01:28;9.40;;;0.90;;
51184;SDS011;37248;59.350;18.050;2023-04-28T06:03:54;3.85;;;0.60;;
51184;SDS011;37248;59.350;18.050;2023-04-28T06:06:22;5.18;;;0.70;;
51184;SDS011;37248;59.350;18.050;2023-04-28T06:08:47;3.87;;;0.60;;
51184;SDS011;37248;59.350;18.050;2023-04-28T06:11:12;3.13;;;0.70;;
51184;SDS011;37248;59.350;18.050;2023-04-28T06:13:37;5.13;;;0.60;;
51184;SDS011;37248;59.350;18.050;2023-04-28T06:16:03;13.47;;;0.90;;
51184;SDS011;37248;59.350;18.050;2023-04-28T06:18:28;4.40;;;0.50;;
51184;SDS011;37248;59.350;18.050;2023-04-28T06:20:56;5.07;;;0.63;;
51184;SDS011;37248;59.350;18.050;2023-04-28T06:23:21;2.47;;;0.40;;
51184;SDS011;37248;59.350;18.050;2023-04-28T06:25:47;5.20;;;0.50;;
51184;SDS011;37248;59.350;18.050;2023-04-28T06:28:12;2.67;;;0.47;;
51184;SDS011;37248;59.350;18.050;2023-04-28T06:30:38;3.60;;;0.47;;
51184;SDS011;37248;59.350;18.050;2023-04-28T06:33:04;5.20;;;0.50;;
51184;SDS011;37248;59.350;18.050;2023-04-28T06:35:29;4.35;;;0.70;;
51184;SDS011;37248;59.350;18.050;2023-04-28T06:37:54;2.60;;;0.43;;
51184;SDS011;37248;59.350;18.050;2023-04-28T06:40:20;3.23;;;0.63;;
51184;SDS011;37248;59.350;18.050;2023-04-28T06:42:45;2.77;;;0.30;;
51184;SDS011;37248;59.350;18.050;2023-04-28T06:45:11;5.57;;;0.53;;
51184;SDS011;37248;59.350;18.050;2023-04-28T06:47:36;3.97;;;0.43;;
51184;SDS011;37248;59.350;18.050;2023-04-28T06:50:01;1.10;;;0.30;;
51184;SDS011;37248;59.350;18.050;2023-04-28T06:52:27;2.20;;;0.50;;
51184;SDS011;37248;59.350;18.050;2023-04-28T06:54:53;4.05;;;0.47;;
51184;SDS011;37248;59.350;18.050;2023-04-28T06:57:18;2.33;;;0.60;;
51184;SDS011;37248;59.350;18.050;2023-04-28T06:59:45;2.53;;;0.70;;
51184;SDS011;37248;59.350;18.050;2023-04-28T07:02:10;4.97;;;0.63;;
51184;SDS011;37248;59.350;18.050;2023-04-28T07:04:35;4.10;;;0.60;;
51184;SDS011;37248;59.350;18.050;2023-04-28T07:07:01;6.57;;;0.70;;
51184;SDS011;37248;59.350;18.050;2023-04-28T07:09:26;5.40;;;0.50;;
51184;SDS011;37248;59.350;18.050;2023-04-28T07:11:51;5.13;;;0.40;;
51184;SDS011;37248;59.350;18.050;2023-04-28T07:14:17;3.47;;;0.40;;
51184;SDS011;37248;59.350;18.050;2023-04-28T07:16:42;8.40;;;0.63;;
51184;SDS011;37248;59.350;18.050;2023-04-28T07:19:07;3.10;;;0.40;;
51184;SDS011;37248;59.350;18.050;2023-04-28T07:21:33;24.40;;;2.20;;
51184;SDS011;37248;59.350;18.050;2023-04-28T07:23:58;77.10;;;5.20;;
51184;SDS011;37248;59.350;18.050;2023-04-28T07:26:24;57.42;;;3.47;;
51184;SDS011;37248;59.350;18.050;2023-04-28T07:28:49;39.60;;;3.60;;
51184;SDS011;37248;59.350;18.050;2023-04-28T07:31:15;46.23;;;3.30;;
51184;SDS011;37248;59.350;18.050;2023-04-28T07:33:40;47.17;;;2.70;;
51184;SDS011;37248;59.350;18.050;2023-04-28T07:36:06;31.37;;;2.73;;
51184;SDS011;37248;59.350;18.050;2023-04-28T07:38:32;23.20;;;2.50;;
51184;SDS011;37248;59.350;18.050;2023-04-28T07:40:58;30.67;;;2.47;;
51184;SDS011;37248;59.350;18.050;2023-04-28T07:43:23;20.77;;;2.47;;
51184;SDS011;37248;59.350;18.050;2023-04-28T07:45:48;23.52;;;1.95;;
51184;SDS011;37248;59.350;18.050;2023-04-28T07:48:14;28.10;;;2.17;;
51184;SDS011;37248;59.350;18.050;2023-04-28T07:50:40;14.80;;;1.60;;
51184;SDS011;37248;59.350;18.050;2023-04-28T07:53:05;17.02;;;1.98;;
51184;SDS011;37248;59.350;18.050;2023-04-28T07:55:30;15.80;;;2.07;;
51184;SDS011;37248;59.350;18.050;2023-04-28T07:57:55;16.65;;;2.00;;
51184;SDS011;37248;59.350;18.050;2023-04-28T08:00:24;20.80;;;2.13;;
51184;SDS011;37248;59.350;18.050;2023-04-28T08:02:50;18.03;;;2.40;;
51184;SDS011;37248;59.350;18.050;2023-04-28T08:08:18;5.72;;;1.20;;
51184;SDS011;37248;59.350;18.050;2023-04-28T08:10:43;14.43;;;1.63;;
51184;SDS011;37248;59.350;18.050;2023-04-28T08:13:09;17.70;;;1.70;;
51184;SDS011;37248;59.350;18.050;2023-04-28T08:15:34;11.50;;;1.80;;
51184;SDS011;37248;59.350;18.050;2023-04-28T08:18:03;10.00;;;1.57;;
51184;SDS011;37248;59.350;18.050;2023-04-28T08:20:29;12.52;;;1.67;;
51184;SDS011;37248;59.350;18.050;2023-04-28T08:22:56;11.18;;;1.58;;
51184;SDS011;37248;59.350;18.050;2023-04-28T08:25:21;13.43;;;1.80;;
51184;SDS011;37248;59.350;18.050;2023-04-28T08:27:47;10.03;;;1.90;;
51184;SDS011;37248;59.350;18.050;2023-04-28T08:30:12;8.00;;;1.57;;
51184;SDS011;37248;59.350;18.050;2023-04-28T08:32:37;8.13;;;1.90;;
51184;SDS011;37248;59.350;18.050;2023-04-28T08:35:03;13.43;;;1.77;;
51184;SDS011;37248;59.350;18.050;2023-04-28T08:37:28;9.15;;;1.60;;
51184;SDS011;37248;59.350;18.050;2023-04-28T08:39:54;6.65;;;1.52;;
51184;SDS011;37248;59.350;18.050;2023-04-28T08:42:29;6.90;;;1.60;;
51184;SDS011;37248;59.350;18.050;2023-04-28T08:44:55;9.27;;;1.80;;
51184;SDS011;37248;59.350;18.050;2023-04-28T08:47:23;7.40;;;2.15;;
51184;SDS011;37248;59.350;18.050;2023-04-28T08:49:49;4.57;;;1.60;;
51184;SDS011;37248;59.350;18.050;2023-04-28T08:52:15;8.67;;;1.90;;
51184;SDS011;37248;59.350;18.050;2023-04-28T08:54:41;7.18;;;2.28;;
51184;SDS011;37248;59.350;18.050;2023-04-28T08:57:08;4.82;;;1.90;;
51184;SDS011;37248;59.350;18.050;2023-04-28T08:59:33;9.15;;;3.08;;
51184;SDS011;37248;59.350;18.050;2023-04-28T09:01:59;8.93;;;2.60;;
51184;SDS011;37248;59.350;18.050;2023-04-28T09:04:24;8.43;;;2.60;;
51184;SDS011;37248;59.350;18.050;2023-04-28T09:06:49;6.80;;;2.70;;
51184;SDS011;37248;59.350;18.050;2023-04-28T09:09:19;10.43;;;3.20;;
51184;SDS011;37248;59.350;18.050;2023-04-28T09:11:49;11.48;;;3.03;;
51184;SDS011;37248;59.350;18.050;2023-04-28T09:14:17;11.82;;;3.40;;
51184;SDS011;37248;59.350;18.050;2023-04-28T09:16:43;14.97;;;3.33;;
51184;SDS011;37248;59.350;18.050;2023-04-28T09:19:08;8.13;;;3.07;;
51184;SDS011;37248;59.350;18.050;2023-04-28T09:21:44;11.97;;;3.37;;
51184;SDS011;37248;59.350;18.050;2023-04-28T09:24:10;11.73;;;3.83;;
51184;SDS011;37248;59.350;18.050;2023-04-28T09:26:47;10.67;;;3.40;;
51184;SDS011;37248;59.350;18.050;2023-04-28T09:29:12;6.65;;;2.65;;
51184;SDS011;37248;59.350;18.050;2023-04-28T09:31:37;8.10;;;3.10;;
51184;SDS011;37248;59.350;18.050;2023-04-28T09:34:04;8.50;;;2.97;;
51184;SDS011;37248;59.350;18.050;2023-04-28T09:36:31;7.60;;;2.92;;
51184;SDS011;37248;59.350;18.050;2023-04-28T09:38:57;10.45;;;3.30;;
51184;SDS011;37248;59.350;18.050;2023-04-28T09:41:33;6.80;;;2.83;;
51184;SDS011;37248;59.350;18.050;2023-04-28T09:44:08;8.13;;;2.93;;
51184;SDS011;37248;59.350;18.050;2023-04-28T09:46:33;8.73;;;3.15;;
51184;SDS011;37248;59.350;18.050;2023-04-28T09:48:59;8.30;;;3.03;;
51184;SDS011;37248;59.350;18.050;2023-04-28T09:51:25;6.60;;;3.00;;
51184;SDS011;37248;59.350;18.050;2023-04-28T09:53:50;9.63;;;2.87;;
51184;SDS011;37248;59.350;18.050;2023-04-28T09:56:16;5.93;;;2.72;;
51184;SDS011;37248;59.350;18.050;2023-04-28T09:58:45;8.65;;;3.20;;
51184;SDS011;37248;59.350;18.050;2023-04-28T10:01:12;7.80;;;2.60;;
51184;SDS011;37248;59.350;18.050;2023-04-28T10:03:38;6.13;;;2.80;;
51184;SDS011;37248;59.350;18.050;2023-04-28T10:06:04;7.13;;;2.60;;
51184;SDS011;37248;59.350;18.050;2023-04-28T10:08:31;6.55;;;2.50;;
51184;SDS011;37248;59.350;18.050;2023-04-28T10:10:56;6.50;;;2.53;;
51184;SDS011;37248;59.350;18.050;2023-04-28T10:13:22;5.43;;;2.30;;
51184;SDS011;37248;59.350;18.050;2023-04-28T10:15:48;5.70;;;2.70;;
51184;SDS011;37248;59.350;18.050;2023-04-28T10:18:14;5.07;;;2.50;;
51184;SDS011;37248;59.350;18.050;2023-04-28T10:20:41;7.10;;;2.05;;
51184;SDS011;37248;59.350;18.050;2023-04-28T10:25:35;6.70;;;3.08;;
51184;SDS011;37248;59.350;18.050;2023-04-28T10:28:03;4.68;;;2.30;;
51184;SDS011;37248;59.350;18.050;2023-04-28T10:30:29;5.07;;;2.03;;
51184;SDS011;37248;59.350;18.050;2023-04-28T10:40:35;5.85;;;2.00;;
51184;SDS011;37248;59.350;18.050;2023-04-28T10:43:00;6.70;;;2.40;;
51184;SDS011;37248;59.350;18.050;2023-04-28T10:48:07;3.40;;;2.00;;
51184;SDS011;37248;59.350;18.050;2023-04-28T10:50:32;5.70;;;2.10;;
51184;SDS011;37248;59.350;18.050;2023-04-28T10:52:57;6.40;;;2.00;;
51184;SDS011;37248;59.350;18.050;2023-04-28T11:00:42;3.33;;;1.50;;
51184;SDS011;37248;59.350;18.050;2023-04-28T11:03:09;3.00;;;1.80;;
51184;SDS011;37248;59.350;18.050;2023-04-28T11:08:38;5.90;;;1.80;;
51184;SDS011;37248;59.350;18.050;2023-04-28T11:11:13;3.37;;;1.93;;
51184;SDS011;37248;59.350;18.050;2023-04-28T11:13:39;3.85;;;1.70;;
51184;SDS011;37248;59.350;18.050;2023-04-28T11:16:04;4.57;;;1.93;;
51184;SDS011;37248;59.350;18.050;2023-04-28T11:18:49;4.20;;;1.80;;
51184;SDS011;37248;59.350;18.050;2023-04-28T11:21:16;3.47;;;1.77;;
51184;SDS011;37248;59.350;18.050;2023-04-28T11:23:41;4.03;;;1.70;;
51184;SDS011;37248;59.350;18.050;2023-04-28T11:26:07;4.00;;;1.73;;
51184;SDS011;37248;59.350;18.050;2023-04-28T11:28:32;3.03;;;1.60;;
51184;SDS011;37248;59.350;18.050;2023-04-28T11:31:12;3.33;;;1.80;;
51184;SDS011;37248;59.350;18.050;2023-04-28T11:33:40;2.70;;;1.70;;
51184;SDS011;37248;59.350;18.050;2023-04-28T11:36:06;3.93;;;1.60;;
51184;SDS011;37248;59.350;18.050;2023-04-28T11:38:43;2.87;;;1.60;;
51184;SDS011;37248;59.350;18.050;2023-04-28T11:41:09;3.95;;;1.67;;
51184;SDS011;37248;59.350;18.050;2023-04-28T11:43:34;6.43;;;2.00;;
51184;SDS011;37248;59.350;18.050;2023-04-28T11:46:00;4.13;;;2.00;;
51184;SDS011;37248;59.350;18.050;2023-04-28T11:48:25;7.53;;;2.43;;
51184;SDS011;37248;59.350;18.050;2023-04-28T11:50:51;9.57;;;2.53;;
51184;SDS011;37248;59.350;18.050;2023-04-28T11:53:16;8.07;;;3.20;;
51184;SDS011;37248;59.350;18.050;2023-04-28T11:55:41;9.60;;;3.87;;
51184;SDS011;37248;59.350;18.050;2023-04-28T11:58:19;15.57;;;7.47;;
51184;SDS011;37248;59.350;18.050;2023-04-28T12:03:40;33.35;;;17.50;;
51184;SDS011;37248;59.350;18.050;2023-04-28T12:06:06;37.97;;;17.70;;
51184;SDS011;37248;59.350;18.050;2023-04-28T12:08:31;34.47;;;16.73;;
51184;SDS011;37248;59.350;18.050;2023-04-28T12:11:12;36.07;;;17.40;;
51184;SDS011;37248;59.350;18.050;2023-04-28T12:13:38;36.35;;;17.13;;
51184;SDS011;37248;59.350;18.050;2023-04-28T12:16:07;35.03;;;17.15;;
51184;SDS011;37248;59.350;18.050;2023-04-28T12:18:33;39.47;;;17.60;;
51184;SDS011;37248;59.350;18.050;2023-04-28T12:20:58;34.10;;;16.60;;
51184;SDS011;37248;59.350;18.050;2023-04-28T12:23:34;33.72;;;15.45;;
51184;SDS011;37248;59.350;18.050;2023-04-28T12:25:59;31.30;;;15.55;;
51184;SDS011;37248;59.350;18.050;2023-04-28T12:31:03;32.00;;;13.75;;
51184;SDS011;37248;59.350;18.050;2023-04-28T12:33:29;27.67;;;13.07;;
51184;SDS011;37248;59.350;18.050;2023-04-28T12:35:54;25.37;;;12.07;;
51184;SDS011;37248;59.350;18.050;2023-04-28T12:38:20;26.73;;;11.77;;
51184;SDS011;37248;59.350;18.050;2023-04-28T12:40:45;27.73;;;10.70;;
51184;SDS011;37248;59.350;18.050;2023-04-28T12:43:11;23.27;;;9.77;;
51184;SDS011;37248;59.350;18.050;2023-04-28T12:45:36;18.77;;;9.17;;
51184;SDS011;37248;59.350;18.050;2023-04-28T12:48:02;20.70;;;8.03;;
51184;SDS011;37248;59.350;18.050;2023-04-28T12:50:27;21.23;;;8.20;;
51184;SDS011;37248;59.350;18.050;2023-04-28T12:52:56;17.42;;;6.90;;
51184;SDS011;37248;59.350;18.050;2023-04-28T12:55:21;16.67;;;6.95;;
51184;SDS011;37248;59.350;18.050;2023-04-28T12:57:47;18.27;;;6.20;;
51184;SDS011;37248;59.350;18.050;2023-04-28T13:00:12;18.23;;;6.30;;
51184;SDS011;37248;59.350;18.050;2023-04-28T13:02:40;18.42;;;5.18;;
51184;SDS011;37248;59.350;18.050;2023-04-28T13:05:05;14.60;;;5.87;;
51184;SDS011;37248;59.350;18.050;2023-04-28T13:07:32;12.87;;;4.63;;
51184;SDS011;37248;59.350;18.050;2023-04-28T13:09:57;13.82;;;4.80;;
51184;SDS011;37248;59.350;18.050;2023-04-28T13:12:23;14.13;;;4.90;;
51184;SDS011;37248;59.350;18.050;2023-04-28T13:14:48;12.70;;;4.20;;
51184;SDS011;37248;59.350;18.050;2023-04-28T13:17:13;13.93;;;3.87;;
51184;SDS011;37248;59.350;18.050;2023-04-28T13:19:39;11.03;;;3.73;;
51184;SDS011;37248;59.350;18.050;2023-04-28T13:22:05;10.00;;;3.57;;
51184;SDS011;37248;59.350;18.050;2023-04-28T13:24:30;8.00;;;3.17;;
51184;SDS011;37248;59.350;18.050;2023-04-28T13:26:57;9.40;;;3.08;;
51184;SDS011;37248;59.350;18.050;2023-04-28T13:29:22;9.77;;;2.92;;
51184;SDS011;37248;59.350;18.050;2023-04-28T13:31:48;9.03;;;2.70;;
51184;SDS011;37248;59.350;18.050;2023-04-28T13:34:13;7.47;;;2.37;;
51184;SDS011;37248;59.350;18.050;2023-04-28T13:36:42;7.90;;;2.60;;
51184;SDS011;37248;59.350;18.050;2023-04-28T13:39:08;6.17;;;2.27;;
51184;SDS011;37248;59.350;18.050;2023-04-28T13:41:38;4.97;;;2.20;;
51184;SDS011;37248;59.350;18.050;2023-04-28T13:44:03;7.57;;;2.27;;
51184;SDS011;37248;59.350;18.050;2023-04-28T13:46:29;5.83;;;2.40;;
51184;SDS011;37248;59.350;18.050;2023-04-28T13:48:54;5.10;;;1.93;;
51184;SDS011;37248;59.350;18.050;2023-04-28T13:51:20;9.00;;;2.72;;
51184;SDS011;37248;59.350;18.050;2023-04-28T13:53:45;14.40;;;8.93;;
51184;SDS011;37248;59.350;18.050;2023-04-28T13:56:10;26.43;;;18.37;;
51184;SDS011;37248;59.350;18.050;2023-04-28T13:58:36;42.80;;;28.37;;
51184;SDS011;37248;59.350;18.050;2023-04-28T14:01:01;45.77;;;33.07;;
51184;SDS011;37248;59.350;18.050;2023-04-28T14:03:28;50.75;;;34.17;;
51184;SDS011;37248;59.350;18.050;2023-04-28T14:05:54;42.43;;;31.57;;
51184;SDS011;37248;59.350;18.050;2023-04-28T14:08:20;40.70;;;28.80;;
51184;SDS011;37248;59.350;18.050;2023-04-28T14:10:46;39.83;;;27.20;;
51184;SDS011;37248;59.350;18.050;2023-04-28T14:13:12;42.00;;;27.27;;
51184;SDS011;37248;59.350;18.050;2023-04-28T14:15:37;35.07;;;24.37;;
51184;SDS011;37248;59.350;18.050;2023-04-28T14:18:03;34.87;;;23.50;;
51184;SDS011;37248;59.350;18.050;2023-04-28T14:20:29;32.80;;;22.57;;
51184;SDS011;37248;59.350;18.050;2023-04-28T14:22:54;29.20;;;19.98;;
51184;SDS011;37248;59.350;18.050;2023-04-28T14:25:19;31.40;;;18.70;;
51184;SDS011;37248;59.350;18.050;2023-04-28T14:27:48;28.00;;;17.37;;
51184;SDS011;37248;59.350;18.050;2023-04-28T14:30:13;27.52;;;16.40;;
51184;SDS011;37248;59.350;18.050;2023-04-28T14:32:39;26.92;;;15.88;;
51184;SDS011;37248;59.350;18.050;2023-04-28T14:35:04;23.13;;;15.07;;
51184;SDS011;37248;59.350;18.050;2023-04-28T14:37:33;22.58;;;14.10;;
51184;SDS011;37248;59.350;18.050;2023-04-28T14:39:58;23.90;;;12.80;;
51184;SDS011;37248;59.350;18.050;2023-04-28T14:42:28;20.35;;;12.40;;
51184;SDS011;37248;59.350;18.050;2023-04-28T14:44:57;21.23;;;11.40;;
51184;SDS011;37248;59.350;18.050;2023-04-28T14:47:22;20.05;;;11.05;;
51184;SDS011;37248;59.350;18.050;2023-04-28T14:49:49;22.88;;;10.52;;
51184;SDS011;37248;59.350;18.050;2023-04-28T14:52:15;18.17;;;9.60;;